Terminal Aerodrome Forecast
Issued by NWS Louisville, KY

Home | Current Version | Previous Version | Text Only | Print | Product List | Glossary On
Versions: 1 2 3 4 5 6 7 8 9 10 11 12 13 14
000
FTUS43 KLMK 172300
TAFLEX
TAF
KLEX 172320Z 1800/1824 25007KT P6SM SKC
     FM180300 27007KT P6SM BKN050
     FM181000 31008KT P6SM BKN025
     FM181700 31009KT P6SM BKN035=

USA.gov is the U.S. government's official web portal to all federal, state and local government web resources and services.